Time;durP1;ratioP1;P1;durP2;ratioP2;P2;SDS_P1;SDS_P2;PMS_P1;PMS_P2;Temp;Humidity;BMP_temperature;BMP_pressure;BME280_temperature;BME280_humidity;BME280_pressure;Samples;Min_cycle;Max_cycle;Signal;HPM_P1;HPM_P2
2021/03/18 00:00:53;;;;;;;20.20;12.28;;;;;;;0.61;79.12;96715.34;1781964;79;21538;-78
2021/03/18 00:03:25;;;;;;;20.25;13.05;;;;;;;0.62;79.17;96721.36;1768073;80;21140;-78
2021/03/18 00:05:54;;;;;;;22.65;13.90;;;;;;;0.63;79.14;96712.02;1745226;80;21116;-78
2021/03/18 00:08:23;;;;;;;21.35;12.85;;;;;;;0.65;79.08;96717.02;1760491;80;21129;-78
2021/03/18 00:10:52;;;;;;;20.80;13.95;;;;;;;0.63;79.13;96705.48;1752912;80;21272;-78
2021/03/18 00:13:23;;;;;;;20.02;13.35;;;;;;;0.61;79.21;96719.77;1760425;80;21282;-78
2021/03/18 00:15:51;;;;;;;19.90;12.82;;;;;;;0.58;79.48;96708.75;1771014;80;21498;-78
2021/03/18 00:18:21;;;;;;;20.72;13.28;;;;;;;0.57;80.00;96709.76;1764791;80;21475;-78
2021/03/18 00:20:48;;;;;;;22.10;12.70;;;;;;;0.52;80.27;96710.88;1750233;80;21266;-78
2021/03/18 00:23:15;;;;;;;18.92;13.72;;;;;;;0.52;80.43;96716.09;1750957;80;21153;-78
2021/03/18 00:25:42;;;;;;;20.43;12.53;;;;;;;0.48;80.33;96712.32;1760324;81;21129;-78
2021/03/18 00:28:09;;;;;;;17.90;11.83;;;;;;;0.51;80.46;96707.98;1752889;81;21101;-78
2021/03/18 00:30:37;;;;;;;19.50;12.68;;;;;;;0.49;80.32;96710.52;1753344;81;21173;-78
2021/03/18 00:33:05;;;;;;;23.45;13.70;;;;;;;0.48;80.35;96716.74;1758834;81;21142;-78
2021/03/18 00:35:32;;;;;;;22.45;14.25;;;;;;;0.48;80.43;96705.80;1756773;80;21271;-78
2021/03/18 00:37:59;;;;;;;21.50;13.78;;;;;;;0.46;80.49;96706.52;1753921;81;21135;-78
2021/03/18 00:40:32;;;;;;;21.82;14.73;;;;;;;0.46;80.57;96714.34;1748684;81;21238;-78
2021/03/18 00:43:04;;;;;;;19.87;13.25;;;;;;;0.45;80.64;96708.84;1751198;81;21520;-79
2021/03/18 00:45:34;;;;;;;20.90;14.87;;;;;;;0.45;80.71;96705.43;1753794;80;21490;-79
2021/03/18 00:48:02;;;;;;;21.60;14.05;;;;;;;0.43;80.83;96703.04;1760418;81;21118;-79
2021/03/18 00:50:35;;;;;;;23.25;14.75;;;;;;;0.46;80.91;96705.73;1742420;81;21171;-79
2021/03/18 00:53:02;;;;;;;21.27;14.40;;;;;;;0.46;80.92;96705.73;1758668;80;21170;-79
2021/03/18 00:55:30;;;;;;;23.70;14.55;;;;;;;0.44;80.91;96702.53;1764885;80;21168;-79
2021/03/18 00:57:57;;;;;;;25.55;14.68;;;;;;;0.44;80.94;96703.33;1763948;81;21128;-79
2021/03/18 01:00:41;;;;;;;23.85;13.48;;;;;;;0.42;80.95;96705.83;1765915;80;21266;-79
2021/03/18 01:03:11;;;;;;;21.97;13.88;;;;;;;0.37;81.14;96701.26;1747836;80;21299;-80
2021/03/18 01:05:52;;;;;;;21.62;13.85;;;;;;;0.35;81.20;96694.66;1753450;80;21188;-80
2021/03/18 01:08:23;;;;;;;19.30;11.85;;;;;;;0.35;81.28;96695.46;1765612;80;21149;-79
2021/03/18 01:11:01;;;;;;;20.97;12.90;;;;;;;0.36;81.34;96694.95;1754618;81;21515;-79
2021/03/18 01:13:29;;;;;;;18.48;12.73;;;;;;;0.33;81.35;96690.97;1755974;80;21193;-80
2021/03/18 01:16:07;;;;;;;21.17;12.55;;;;;;;0.32;81.33;96689.38;1762674;80;21115;-80
2021/03/18 01:18:46;;;;;;;15.72;11.03;;;;;;;0.31;81.42;96689.08;1766291;80;21139;-80
2021/03/18 01:21:14;;;;;;;19.12;12.65;;;;;;;0.29;81.51;96689.30;1760617;80;21152;-80
2021/03/18 01:23:41;;;;;;;22.20;12.78;;;;;;;0.28;81.57;96691.61;1763795;81;21096;-79
2021/03/18 01:26:11;;;;;;;19.85;12.88;;;;;;;0.18;81.59;96672.22;1762438;80;21536;-80
2021/03/18 01:28:39;;;;;;;20.60;13.00;;;;;;;0.27;81.64;96688.68;1763836;81;21125;-80
2021/03/18 01:31:08;;;;;;;18.23;12.78;;;;;;;0.24;81.67;96683.89;1765297;80;21163;-80
2021/03/18 01:33:37;;;;;;;20.25;12.85;;;;;;;0.24;81.73;96687.00;1767481;81;21129;-80
2021/03/18 01:36:11;;;;;;;23.42;13.32;;;;;;;0.23;81.77;96686.71;1753464;80;21145;-80
2021/03/18 01:38:37;;;;;;;21.42;12.47;;;;;;;0.23;81.87;96692.72;1688928;83;21123;-79
2021/03/18 01:41:05;;;;;;;21.17;12.40;;;;;;;0.23;81.90;96688.81;1700160;82;21164;-79
2021/03/18 01:43:33;;;;;;;17.60;11.88;;;;;;;0.24;81.92;96687.00;1710916;82;21280;-79
2021/03/18 01:46:00;;;;;;;17.32;12.80;;;;;;;0.23;81.89;96684.11;1734855;82;21151;-79
2021/03/18 01:48:28;;;;;;;18.60;12.60;;;;;;;0.22;81.89;96683.81;1719111;83;21711;-80
2021/03/18 01:50:57;;;;;;;20.52;13.38;;;;;;;0.21;81.84;96687.44;1720897;81;21520;-80
2021/03/18 01:53:26;;;;;;;18.52;11.85;;;;;;;0.22;81.90;96682.52;1721854;82;21146;-79
2021/03/18 01:55:55;;;;;;;19.77;11.78;;;;;;;0.23;81.88;96680.20;1705837;83;21083;-79
2021/03/18 01:58:24;;;;;;;18.12;11.97;;;;;;;0.22;81.84;96691.13;1703439;84;21123;-79
2021/03/18 02:00:59;;;;;;;17.02;11.15;;;;;;;0.20;81.82;96689.24;1710969;83;21120;-79
2021/03/18 02:03:28;;;;;;;17.92;11.45;;;;;;;0.19;81.75;96690.77;1713905;83;21564;-79
2021/03/18 02:05:55;;;;;;;17.87;11.38;;;;;;;0.17;81.71;96689.67;1713719;82;21166;-79
2021/03/18 02:08:23;;;;;;;21.25;12.10;;;;;;;0.16;81.82;96695.09;1706714;83;21159;-80
2021/03/18 02:10:51;;;;;;;17.27;11.20;;;;;;;0.17;81.79;96699.30;1700262;84;21544;-80
2021/03/18 02:13:20;;;;;;;18.62;11.35;;;;;;;0.15;81.77;96694.80;1714185;82;21490;-79
2021/03/18 02:15:55;;;;;;;19.00;12.05;;;;;;;0.12;81.73;96695.20;1728029;82;21252;-79
2021/03/18 02:19:01;;;;;;;17.50;11.15;;;;;;;0.12;81.78;96700.41;1719309;82;21114;-79
2021/03/18 02:22:05;;;;;;;20.23;11.75;;;;;;;0.11;81.85;96696.21;1692648;84;21667;-80
2021/03/18 02:24:47;;;;;;;18.57;10.90;;;;;;;0.09;81.81;96700.33;1709464;82;21151;-79
2021/03/18 02:27:32;;;;;;;18.32;12.47;;;;;;;-0.03;81.89;96683.25;1717050;82;21142;-80
2021/03/18 02:30:27;;;;;;;20.17;10.98;;;;;;;0.04;81.92;96704.08;1705788;82;21122;-79
2021/03/18 02:33:35;;;;;;;19.82;11.60;;;;;;;0.05;82.06;96710.89;1657726;82;21535;-80
2021/03/18 02:36:16;;;;;;;17.67;11.63;;;;;;;0.03;81.91;96702.48;1707536;82;21146;-80
2021/03/18 02:39:00;;;;;;;18.45;11.38;;;;;;;0.05;81.96;96699.67;1692909;84;21184;-80
2021/03/18 02:41:41;;;;;;;17.65;11.57;;;;;;;0.02;81.85;96710.52;1698029;81;21163;-79
2021/03/18 02:44:22;;;;;;;18.07;11.45;;;;;;;0.02;81.85;96710.52;1664272;86;21523;-80
2021/03/18 02:47:11;;;;;;;17.73;11.50;;;;;;;0.00;81.94;96714.64;1705476;83;21107;-79
2021/03/18 02:49:46;;;;;;;18.02;12.03;;;;;;;0.01;81.97;96718.04;1680866;84;21129;-79
2021/03/18 02:52:20;;;;;;;16.97;11.45;;;;;;;-0.01;81.95;96711.20;1720344;82;21175;-79
2021/03/18 02:54:53;;;;;;;17.77;11.10;;;;;;;0.00;81.98;96708.13;1711251;83;21147;-79
2021/03/18 02:57:23;;;;;;;19.30;11.95;;;;;;;0.01;82.01;96714.13;1704556;83;21102;-79
2021/03/18 02:59:54;;;;;;;14.07;8.40;;;;;;;0.03;82.04;96703.78;1678304;84;21456;-79
2021/03/18 03:02:28;;;;;;;19.30;11.57;;;;;;;0.03;82.00;96706.90;1708293;83;22237;-79
2021/03/18 03:04:58;;;;;;;18.57;11.55;;;;;;;-0.09;81.95;96695.83;1702669;84;21525;-79
2021/03/18 03:07:28;;;;;;;19.07;11.03;;;;;;;-0.01;81.92;96712.50;1713029;83;21103;-79
2021/03/18 03:09:58;;;;;;;15.58;10.48;;;;;;;-0.01;81.95;96711.20;1710623;83;21095;-79
2021/03/18 03:12:29;;;;;;;15.90;9.30;;;;;;;0.05;82.10;96706.18;1692602;84;21154;-79
2021/03/18 03:14:57;;;;;;;16.60;9.38;;;;;;;0.05;82.10;96706.18;1712706;83;21140;-79
2021/03/18 03:17:27;;;;;;;15.65;8.75;;;;;;;0.02;81.93;96713.12;1721750;83;21152;-79
2021/03/18 03:19:59;;;;;;;14.63;8.75;;;;;;;-0.01;81.90;96713.81;1695660;84;21110;-79
2021/03/18 03:22:28;;;;;;;16.07;9.80;;;;;;;0.02;82.11;96717.03;1698516;83;21127;-79
2021/03/18 03:24:58;;;;;;;15.05;9.35;;;;;;;0.02;82.11;96717.03;1711372;83;21143;-79
2021/03/18 03:27:26;;;;;;;;;;;;;;;-0.01;81.98;96715.11;1699461;83;21130;-79
2021/03/18 03:29:54;;;;;;;15.20;9.00;;;;;;;-0.01;81.98;96716.92;1718080;83;20128;-79
2021/03/18 03:32:22;;;;;;;13.13;9.40;;;;;;;-0.10;82.03;96715.08;1712295;81;21121;-79
2021/03/18 03:34:50;;;;;;;15.83;8.90;;;;;;;-0.10;82.03;96715.08;1704176;83;21168;-79
2021/03/18 03:37:17;;;;;;;12.05;7.97;;;;;;;-0.12;82.04;96721.00;1708049;83;21171;-79
2021/03/18 03:39:44;;;;;;;14.58;8.35;;;;;;;-0.12;82.04;96721.00;1719092;83;21112;-79
2021/03/18 03:42:12;;;;;;;14.43;8.65;;;;;;;-0.15;81.99;96722.70;1713963;82;21514;-80
2021/03/18 03:44:41;;;;;;;15.70;9.08;;;;;;;-0.15;81.99;96722.70;1695030;84;21095;-79
2021/03/18 03:47:10;;;;;;;14.50;8.35;;;;;;;-0.23;82.10;96708.63;1708690;83;21143;-79
2021/03/18 03:49:39;;;;;;;16.27;9.08;;;;;;;-0.12;82.18;96722.30;1703307;84;21099;-79
2021/03/18 03:52:28;;;;;;;14.58;8.70;;;;;;;-0.22;82.15;96712.82;1712207;83;21148;-79
2021/03/18 03:55:03;;;;;;;14.50;8.75;;;;;;;-0.12;82.16;96717.59;1712248;83;21139;-80
2021/03/18 03:57:45;;;;;;;13.55;8.20;;;;;;;-0.14;82.24;96712.60;1687871;84;21122;-79
2021/03/18 04:00:14;;;;;;;15.23;9.03;;;;;;;-0.12;82.06;96728.82;1706879;83;21532;-79
2021/03/18 04:02:45;;;;;;;14.40;7.83;;;;;;;-0.12;82.06;96728.82;1703414;84;21226;-79
2021/03/18 04:05:14;;;;;;;14.85;8.13;;;;;;;-0.09;82.23;96724.48;1712199;83;21111;-79
2021/03/18 04:07:43;;;;;;;14.87;8.95;;;;;;;-0.08;82.23;96727.39;1703318;83;21123;-79
2021/03/18 04:10:13;;;;;;;14.23;8.15;;;;;;;-0.08;82.22;96731.30;1693231;83;21523;-79
2021/03/18 04:12:44;;;;;;;14.93;8.78;;;;;;;-0.07;82.24;96730.28;1703217;83;21131;-79
2021/03/18 04:15:19;;;;;;;13.38;8.55;;;;;;;-0.06;82.23;96729.28;1694229;84;21481;-79
2021/03/18 04:17:53;;;;;;;15.28;9.10;;;;;;;-0.06;82.23;96729.28;1704781;83;21178;-79
2021/03/18 04:20:23;;;;;;;14.23;8.53;;;;;;;-0.05;82.20;96727.47;1705898;83;21133;-79
2021/03/18 04:22:53;;;;;;;;;;;;;;;-0.05;82.30;96728.77;1698419;83;21135;-79
2021/03/18 04:25:23;;;;;;;14.57;8.30;;;;;;;-0.05;82.19;96725.66;1717210;83;20116;-79
2021/03/18 04:27:53;;;;;;;14.13;8.70;;;;;;;-0.04;82.18;96730.38;1719794;83;21159;-79
2021/03/18 04:30:22;;;;;;;10.40;6.00;;;;;;;-0.05;82.19;96729.58;1710634;83;21126;-79
2021/03/18 04:32:50;;;;;;;13.58;9.28;;;;;;;-0.05;82.23;96721.75;1671422;84;21471;-79
2021/03/18 04:35:19;;;;;;;17.80;9.78;;;;;;;-0.18;82.19;96698.88;1699399;83;21134;-79
2021/03/18 04:37:48;;;;;;;12.88;9.58;;;;;;;-0.07;82.20;96728.98;1678070;83;21148;-79
2021/03/18 04:40:19;;;;;;;16.50;10.13;;;;;;;-0.08;82.25;96726.09;1719109;83;21221;-79
2021/03/18 04:42:47;;;;;;;15.18;9.78;;;;;;;-0.08;82.31;96726.59;1692479;84;21155;-79
2021/03/18 04:45:21;;;;;;;15.30;9.35;;;;;;;-0.19;82.43;96709.80;1710611;83;21114;-79
2021/03/18 04:47:51;;;;;;;15.23;10.25;;;;;;;-0.07;82.39;96729.48;1703158;84;21096;-79
2021/03/18 04:50:21;;;;;;;16.00;10.57;;;;;;;-0.10;82.40;96729.41;1710435;83;21520;-79
2021/03/18 04:52:50;;;;;;;13.22;9.00;;;;;;;-0.09;82.48;96731.51;1712924;82;22273;-79
2021/03/18 04:55:20;;;;;;;18.48;11.00;;;;;;;-0.10;82.53;96733.31;1718472;83;21137;-79
2021/03/18 04:57:56;;;;;;;14.65;10.45;;;;;;;-0.11;82.57;96731.72;1711857;83;21144;-79
2021/03/18 05:00:25;;;;;;;17.10;12.13;;;;;;;-0.09;82.65;96735.41;1694805;83;21508;-79
2021/03/18 05:02:53;;;;;;;20.08;10.85;;;;;;;-0.11;82.67;96736.13;1711545;83;21107;-79
2021/03/18 05:05:23;;;;;;;18.15;11.60;;;;;;;-0.12;82.76;96737.94;1710469;83;21124;-79
2021/03/18 05:07:51;;;;;;;17.37;11.08;;;;;;;-0.13;82.82;96740.75;1707992;83;21494;-79
2021/03/18 05:10:26;;;;;;;16.37;11.05;;;;;;;-0.14;82.85;96738.66;1701868;83;21123;-79
2021/03/18 05:12:56;;;;;;;19.82;12.33;;;;;;;-0.29;82.88;96719.85;1711375;83;21182;-79
2021/03/18 05:15:25;;;;;;;17.73;11.00;;;;;;;-0.16;82.90;96746.36;1702561;83;21494;-79
2021/03/18 05:17:54;;;;;;;19.25;13.95;;;;;;;-0.17;82.98;96746.86;1703310;84;21528;-79
2021/03/18 05:20:24;;;;;;;21.07;13.45;;;;;;;-0.28;83.12;96725.38;1711271;83;21122;-79
2021/03/18 05:22:54;;;;;;;20.77;13.15;;;;;;;-0.28;83.09;96727.98;1695124;83;21138;-79
2021/03/18 05:25:26;;;;;;;14.55;9.25;;;;;;;-0.17;83.24;96742.95;1708266;82;21133;-79
2021/03/18 05:27:53;;;;;;;18.17;12.47;;;;;;;-0.16;83.28;96744.55;1711075;83;21120;-79
2021/03/18 05:30:23;;;;;;;17.75;13.03;;;;;;;-0.14;83.28;96746.94;1705254;83;21122;-79
2021/03/18 05:32:50;;;;;;;20.83;13.67;;;;;;;-0.12;83.35;96750.17;1704020;83;21478;-79
2021/03/18 05:35:17;;;;;;;23.10;14.47;;;;;;;-0.10;83.25;96749.45;1705995;83;21376;-79
2021/03/18 05:37:44;;;;;;;21.95;15.13;;;;;;;-0.09;83.25;96752.35;1711062;83;21129;-79
2021/03/18 05:40:15;;;;;;;20.55;12.78;;;;;;;-0.08;83.24;96753.45;1703272;83;21135;-79
2021/03/18 05:42:42;;;;;;;;;;;;;;;-0.08;83.24;96753.45;1718266;83;21120;-79
2021/03/18 05:45:14;;;;;;;20.77;13.98;;;;;;;-0.08;83.23;96746.94;1713245;82;20168;-79
2021/03/18 05:47:41;;;;;;;20.37;13.70;;;;;;;-0.07;83.29;96749.83;1703944;83;21083;-79
2021/03/18 05:50:14;;;;;;;20.57;14.05;;;;;;;-0.10;83.29;96747.65;1696163;84;21498;-79
2021/03/18 05:52:41;;;;;;;20.57;14.33;;;;;;;-0.02;83.25;96754.41;1703439;83;21105;-79
2021/03/18 05:55:10;;;;;;;21.48;14.03;;;;;;;-0.03;83.23;96754.92;1731863;82;21116;-79
2021/03/18 05:57:40;;;;;;;21.40;14.63;;;;;;;-0.02;83.26;96759.63;1714029;83;21172;-79
2021/03/18 06:00:13;;;;;;;21.75;14.43;;;;;;;-0.02;83.31;96762.23;1727434;82;21529;-79
2021/03/18 06:02:41;;;;;;;23.27;14.87;;;;;;;-0.01;83.33;96759.41;1730370;82;21160;-79
2021/03/18 06:05:13;;;;;;;22.37;14.53;;;;;;;-0.01;83.43;96763.32;1696639;83;21155;-79
2021/03/18 06:07:45;;;;;;;21.20;12.60;;;;;;;0.04;83.37;96765.33;1715558;82;21502;-79
2021/03/18 06:10:23;;;;;;;20.72;14.47;;;;;;;0.07;83.37;96758.39;1723070;82;21194;-79
2021/03/18 06:12:53;;;;;;;23.27;14.60;;;;;;;0.07;83.21;96762.80;1699411;83;21160;-79
2021/03/18 06:15:23;;;;;;;22.22;14.50;;;;;;;0.09;83.19;96767.30;1676341;84;21135;-79
2021/03/18 06:17:53;;;;;;;17.98;13.08;;;;;;;0.11;83.17;96772.59;1700288;82;21119;-79
2021/03/18 06:20:29;;;;;;;22.05;14.28;;;;;;;0.15;83.13;96770.40;1714339;82;21476;-79
2021/03/18 06:22:59;;;;;;;20.68;13.68;;;;;;;0.18;83.07;96777.80;1703913;82;21522;-79
2021/03/18 06:25:31;;;;;;;22.05;14.38;;;;;;;0.22;82.96;96780.27;1713715;82;21507;-79
2021/03/18 06:28:23;;;;;;;18.90;12.37;;;;;;;0.25;82.95;96779.34;1707198;84;21172;-79
2021/03/18 06:31:13;;;;;;;18.87;12.78;;;;;;;0.30;82.76;96786.56;1709245;82;21116;-79
2021/03/18 06:33:50;;;;;;;15.20;9.70;;;;;;;0.30;82.69;96783.95;1707891;82;21160;-79
2021/03/18 06:36:27;;;;;;;17.30;12.98;;;;;;;0.30;82.53;96786.56;1712895;82;21156;-79
2021/03/18 06:39:11;;;;;;;21.00;14.15;;;;;;;0.31;82.42;96790.77;1708229;84;21144;-79
2021/03/18 06:41:45;;;;;;;17.70;12.95;;;;;;;0.30;82.38;96791.78;1713614;82;21143;-79
2021/03/18 06:44:22;;;;;;;21.17;13.30;;;;;;;0.35;82.40;96798.45;1714940;82;21128;-78
2021/03/18 06:46:53;;;;;;;19.73;13.15;;;;;;;0.40;82.20;96797.83;1713760;82;21173;-79
2021/03/18 06:49:23;;;;;;;18.05;12.85;;;;;;;0.40;82.07;96790.80;1712772;82;21189;-79
2021/03/18 06:52:10;;;;;;;19.87;12.30;;;;;;;0.46;82.10;96793.09;1714358;82;21508;-79
2021/03/18 06:54:42;;;;;;;16.25;11.50;;;;;;;0.56;82.09;96790.80;1695700;84;21159;-79
2021/03/18 06:57:11;;;;;;;20.43;12.30;;;;;;;0.72;82.01;96789.53;1687862;84;21164;-79
2021/03/18 06:59:42;;;;;;;16.20;11.00;;;;;;;0.82;81.85;96785.92;1688846;84;21141;-79
2021/03/18 07:02:19;;;;;;;19.52;11.60;;;;;;;0.94;81.77;96784.23;1735866;82;21440;-79
2021/03/18 07:04:55;;;;;;;16.65;11.75;;;;;;;0.99;81.28;96792.75;1735792;82;21245;-79
2021/03/18 07:07:26;;;;;;;17.23;11.33;;;;;;;0.98;80.82;96791.13;1727978;82;21110;-79
2021/03/18 07:09:56;;;;;;;18.82;11.80;;;;;;;1.00;80.79;96793.84;1734875;82;21157;-79
2021/03/18 07:12:31;;;;;;;18.80;12.10;;;;;;;1.00;80.61;96796.45;1725325;82;21143;-79
2021/03/18 07:15:00;;;;;;;17.12;11.75;;;;;;;1.03;80.65;96795.22;1736658;82;21115;-79
2021/03/18 07:17:36;;;;;;;16.87;11.97;;;;;;;1.00;80.26;96788.62;1732880;82;21208;-79
2021/03/18 07:20:22;;;;;;;17.10;10.78;;;;;;;0.95;80.17;96793.66;1736637;82;21119;-80
2021/03/18 07:22:53;;;;;;;18.10;11.73;;;;;;;0.95;80.27;96790.25;1732190;82;21116;-79
2021/03/18 07:25:28;;;;;;;14.73;11.40;;;;;;;0.97;80.28;96793.44;1729716;82;21103;-79
2021/03/18 07:27:59;;;;;;;18.57;12.13;;;;;;;0.99;80.18;96790.14;1737318;82;21162;-79
2021/03/18 07:30:36;;;;;;;21.00;12.78;;;;;;;1.01;80.07;96793.33;1691566;84;21133;-79
2021/03/18 07:33:05;;;;;;;19.37;12.75;;;;;;;1.13;80.30;96790.32;1686706;84;21153;-79
2021/03/18 07:35:34;;;;;;;20.27;13.03;;;;;;;1.28;80.25;96784.77;1690888;84;21159;-79
2021/03/18 07:38:04;;;;;;;20.43;13.05;;;;;;;1.36;80.12;96791.01;1685490;84;21157;-79
2021/03/18 07:40:32;;;;;;;21.52;13.62;;;;;;;1.39;79.99;96785.34;1692562;84;22259;-79
2021/03/18 07:43:00;;;;;;;19.65;12.98;;;;;;;1.36;79.84;96792.31;1690663;84;21202;-79
2021/03/18 07:45:29;;;;;;;16.60;11.38;;;;;;;1.43;79.91;96796.98;1694941;84;21191;-79
2021/03/18 07:47:57;;;;;;;15.50;10.90;;;;;;;1.51;79.65;96796.69;1734536;82;21487;-79
2021/03/18 07:50:35;;;;;;;16.27;10.23;;;;;;;1.55;79.26;96798.35;1734279;82;21138;-79
2021/03/18 07:53:04;;;;;;;19.30;12.28;;;;;;;1.62;79.42;96791.27;1727494;82;21143;-79
2021/03/18 07:55:33;;;;;;;14.58;11.08;;;;;;;1.74;79.31;96796.87;1761878;81;22502;-79
2021/03/18 07:58:00;;;;;;;13.70;10.03;;;;;;;1.86;79.18;96796.15;1755923;81;21298;-79
2021/03/18 08:00:32;;;;;;;15.05;10.15;;;;;;;1.99;78.87;96791.56;1733669;82;21174;-79
2021/03/18 08:03:21;;;;;;;19.30;12.55;;;;;;;2.15;78.74;96791.48;1734848;82;21150;-79
2021/03/18 08:05:50;;;;;;;20.35;12.30;;;;;;;2.26;78.43;96795.97;1763102;81;21353;-79
2021/03/18 08:08:35;;;;;;;18.25;11.78;;;;;;;2.44;78.07;96795.13;1763088;81;21202;-79
2021/03/18 08:11:16;;;;;;;19.05;10.55;;;;;;;2.67;77.89;96793.08;1754585;80;21643;-79
2021/03/18 08:13:45;;;;;;;18.85;11.40;;;;;;;3.11;77.97;96793.66;1763339;81;21272;-79
2021/03/18 08:16:31;;;;;;;13.05;9.13;;;;;;;3.80;76.54;96797.28;1763248;81;21117;-79
2021/03/18 08:19:00;;;;;;;16.48;10.85;;;;;;;4.03;76.04;96803.02;1763248;81;21128;-79
2021/03/18 08:21:41;;;;;;;15.93;10.30;;;;;;;5.22;76.25;96798.63;1763341;80;21184;-79
2021/03/18 08:24:12;;;;;;;12.35;8.38;;;;;;;7.79;75.66;96784.78;1756633;81;21132;-79
2021/03/18 08:26:51;;;;;;;12.80;8.90;;;;;;;9.27;69.00;96789.42;1762977;81;21286;-79
2021/03/18 08:29:26;;;;;;;13.22;8.73;;;;;;;8.19;66.29;96779.70;1763242;81;21242;-79
2021/03/18 08:32:00;;;;;;;10.95;7.95;;;;;;;6.96;66.44;96785.23;1755090;80;21144;-79
2021/03/18 08:34:52;;;;;;;13.03;8.38;;;;;;;6.12;66.94;96787.52;1755899;81;21286;-79
2021/03/18 08:37:36;;;;;;;25.82;14.93;;;;;;;5.65;67.78;96781.37;1762122;81;21279;-79
2021/03/18 08:40:09;;;;;;;13.93;8.70;;;;;;;5.57;68.75;96779.14;1763111;81;21092;-79
2021/03/18 08:42:41;;;;;;;11.85;7.67;;;;;;;8.14;68.52;96783.61;1753319;81;21238;-80
2021/03/18 08:45:16;;;;;;;9.83;7.17;;;;;;;8.55;59.32;96774.02;1763252;81;21295;-80
2021/03/18 08:47:48;;;;;;;10.05;7.05;;;;;;;8.27;55.32;96780.50;1763214;81;21301;-80
2021/03/18 08:50:26;;;;;;;14.23;8.80;;;;;;;8.31;58.93;96772.34;1763192;81;21296;-80
2021/03/18 08:52:59;;;;;;;13.18;8.40;;;;;;;8.84;54.49;96777.50;1762462;80;21265;-80
2021/03/18 08:55:38;;;;;;;19.02;10.78;;;;;;;7.68;56.64;96775.47;1761820;80;21506;-80
2021/03/18 08:58:09;;;;;;;12.63;7.05;;;;;;;6.88;59.16;96777.77;1761176;80;21127;-79
2021/03/18 09:00:37;;;;;;;8.78;5.15;;;;;;;6.25;58.88;96781.88;1756570;81;21105;-79
2021/03/18 09:03:06;;;;;;;6.33;4.47;;;;;;;5.60;59.46;96781.28;1760657;80;21149;-80
2021/03/18 09:05:35;;;;;;;7.30;4.72;;;;;;;5.91;60.99;96783.33;1756002;81;21123;-79
2021/03/18 09:08:05;;;;;;;7.83;4.87;;;;;;;6.85;62.21;96782.23;1753232;80;21131;-79
2021/03/18 09:10:36;;;;;;;9.75;6.03;;;;;;;6.98;56.93;96776.55;1749172;81;21197;-79
2021/03/18 09:13:17;;;;;;;9.25;5.80;;;;;;;6.71;56.58;96775.25;1764176;80;21153;-80
2021/03/18 09:15:49;;;;;;;5.47;4.37;;;;;;;6.02;58.79;96785.55;1756272;81;21080;-80
2021/03/18 09:18:31;;;;;;;7.12;3.80;;;;;;;5.65;59.12;96774.80;1754164;81;21490;-80
2021/03/18 09:21:08;;;;;;;6.58;4.37;;;;;;;5.42;59.35;96786.81;1758519;80;21097;-80
2021/03/18 09:23:41;;;;;;;7.47;4.70;;;;;;;5.26;59.19;96773.44;1763166;80;21107;-80
2021/03/18 09:26:13;;;;;;;7.87;5.00;;;;;;;5.03;59.03;96784.10;1756971;80;21092;-80
2021/03/18 09:28:50;;;;;;;8.58;4.47;;;;;;;4.68;59.06;96786.42;1752402;80;21158;-80
2021/03/18 09:31:24;;;;;;;8.45;4.90;;;;;;;4.45;59.66;96785.20;1757890;80;21105;-80
2021/03/18 09:33:55;;;;;;;5.95;4.12;;;;;;;4.23;60.15;96790.83;1761154;80;21511;-80
2021/03/18 09:36:27;;;;;;;7.15;4.12;;;;;;;3.98;60.11;96793.23;1749949;80;21138;-80
2021/03/18 09:39:03;;;;;;;7.00;4.58;;;;;;;3.73;60.62;96792.17;1764612;80;21153;-80
2021/03/18 09:41:35;;;;;;;7.42;4.90;;;;;;;3.56;61.22;96793.39;1747819;80;21576;-80
2021/03/18 09:44:13;;;;;;;8.05;5.08;;;;;;;3.38;61.53;96785.66;1756679;80;21125;-80
2021/03/18 09:46:44;;;;;;;8.48;5.00;;;;;;;3.25;61.77;96793.73;1757014;81;21140;-80
2021/03/18 09:49:12;;;;;;;7.10;4.42;;;;;;;3.13;62.27;96792.92;1763868;80;21129;-80
2021/03/18 09:51:43;;;;;;;10.13;5.58;;;;;;;2.98;61.92;96788.12;1755704;81;21139;-80
2021/03/18 09:54:13;;;;;;;13.15;5.20;;;;;;;3.22;62.99;96779.23;1754205;81;21174;-80
2021/03/18 09:56:45;;;;;;;7.33;4.67;;;;;;;3.77;63.22;96784.13;1756564;80;21124;-80
2021/03/18 09:59:12;;;;;;;8.63;5.20;;;;;;;4.03;63.02;96777.58;1725760;82;21127;-80
2021/03/18 10:01:39;;;;;;;7.87;4.28;;;;;;;4.21;63.03;96778.44;1713625;82;21527;-80
2021/03/18 10:04:11;;;;;;;4.00;2.60;;;;;;;4.21;61.62;96781.85;1713515;82;21165;-78
2021/03/18 10:06:52;;;;;;;4.58;2.40;;;;;;;3.98;60.74;96780.11;1713778;82;21204;-77
2021/03/18 10:09:39;;;;;;;6.37;3.10;;;;;;;3.84;60.75;96774.84;1709680;82;21242;-79
2021/03/18 10:12:10;;;;;;;9.18;5.00;;;;;;;3.74;60.76;96771.48;1711867;82;21132;-79
2021/03/18 10:14:41;;;;;;;;;;;;;;;3.60;60.36;96772.75;1716467;82;21131;-79
2021/03/18 10:17:19;;;;;;;8.15;4.33;;;;;;;3.56;60.60;96774.24;1711998;84;20118;-79
2021/03/18 10:19:58;;;;;;;4.08;2.58;;;;;;;3.56;60.78;96773.73;1702316;82;21487;-79
2021/03/18 10:22:38;;;;;;;5.62;2.70;;;;;;;3.61;60.11;96772.23;1712172;82;21172;-79
2021/03/18 10:25:10;;;;;;;3.10;2.00;;;;;;;3.86;60.52;96770.16;1713991;84;21503;-79
2021/03/18 10:27:50;;;;;;;5.03;2.08;;;;;;;3.83;59.35;96768.00;1713806;82;21093;-79
2021/03/18 10:30:21;;;;;;;4.00;1.98;;;;;;;3.49;57.95;96757.31;1707171;84;21153;-80
2021/03/18 10:33:08;;;;;;;;;;;;;;;3.06;57.55;96757.65;1686818;84;21150;-79
2021/03/18 10:35:45;;;;;;;3.98;2.33;;;;;;;2.77;57.86;96762.45;1710410;82;20149;-79
2021/03/18 10:38:15;;;;;;;3.05;2.10;;;;;;;2.65;58.70;96754.05;1713780;84;21507;-79
2021/03/18 10:40:47;;;;;;;3.00;1.95;;;;;;;2.62;57.85;96755.81;1709845;82;21521;-79
2021/03/18 10:43:29;;;;;;;3.67;2.27;;;;;;;2.51;58.58;96752.64;1711408;82;21132;-79
2021/03/18 10:46:02;;;;;;;3.22;2.05;;;;;;;2.53;58.35;96751.91;1710889;82;21518;-79
2021/03/18 10:48:34;;;;;;;3.95;2.30;;;;;;;2.47;59.34;96750.71;1713797;82;21288;-79
2021/03/18 10:51:09;;;;;;;4.33;2.22;;;;;;;2.48;60.34;96762.26;1713641;82;21156;-79
2021/03/18 10:53:39;;;;;;;5.00;2.40;;;;;;;2.35;61.00;96767.16;1712756;82;21131;-79
2021/03/18 10:56:09;;;;;;;3.05;2.12;;;;;;;2.25;61.94;96766.91;1712741;84;21489;-79
2021/03/18 10:58:39;;;;;;;4.33;2.37;;;;;;;2.28;62.34;96764.36;1713451;82;21131;-79
2021/03/18 11:01:10;;;;;;;4.20;2.10;;;;;;;2.34;62.41;96755.10;1713661;82;21170;-79
2021/03/18 11:03:41;;;;;;;5.17;2.67;;;;;;;2.42;62.80;96755.31;1712835;82;21101;-79
2021/03/18 11:06:22;;;;;;;5.08;2.20;;;;;;;2.48;63.40;96753.61;1708578;82;21271;-79
2021/03/18 11:08:51;;;;;;;;;;;;;;;2.48;63.01;96745.77;1713073;82;21131;-79
2021/03/18 11:11:31;;;;;;;3.90;2.17;;;;;;;2.21;62.41;96746.12;1713492;84;20149;-79
2021/03/18 11:14:14;;;;;;;3.47;2.15;;;;;;;2.16;62.70;96743.89;1705095;82;21151;-80
2021/03/18 11:16:42;;;;;;;5.25;2.22;;;;;;;2.23;62.35;96738.84;1712178;82;21161;-80
2021/03/18 11:19:13;;;;;;;2.92;1.87;;;;;;;2.51;62.89;96730.91;1714148;84;21533;-80
2021/03/18 11:21:44;;;;;;;3.95;2.12;;;;;;;2.92;62.18;96723.54;1714007;82;21542;-80
2021/03/18 11:24:22;;;;;;;3.75;2.10;;;;;;;3.09;61.45;96717.11;1713338;82;21555;-80
2021/03/18 11:26:57;;;;;;;7.08;4.22;;;;;;;3.30;61.16;96719.17;1713895;82;21127;-80
2021/03/18 11:29:35;;;;;;;3.47;2.08;;;;;;;3.34;60.27;96720.81;1714059;82;21496;-80
2021/03/18 11:32:07;;;;;;;4.47;2.02;;;;;;;3.01;58.75;96720.08;1761158;80;21132;-80
2021/03/18 11:34:38;;;;;;;3.87;2.05;;;;;;;2.79;59.99;96725.85;1766819;80;21145;-80
2021/03/18 11:37:09;;;;;;;2.62;1.52;;;;;;;2.66;60.39;96726.85;1731566;82;21161;-79
2021/03/18 11:39:37;;;;;;;3.02;2.05;;;;;;;2.48;59.90;96726.94;1702247;83;21292;-79
2021/03/18 11:42:05;;;;;;;4.20;2.17;;;;;;;2.28;60.83;96722.00;1733195;82;21172;-79
2021/03/18 11:44:33;;;;;;;2.47;1.40;;;;;;;2.26;61.00;96729.78;1703154;83;21189;-79
2021/03/18 11:47:04;;;;;;;2.60;1.72;;;;;;;2.21;60.06;96705.58;1731331;82;21549;-79
2021/03/18 11:49:32;;;;;;;3.47;2.10;;;;;;;2.26;60.67;96716.70;1710509;83;21509;-79
2021/03/18 11:52:00;;;;;;;3.45;1.85;;;;;;;2.42;60.31;96706.11;1732746;82;21507;-80
2021/03/18 11:54:27;;;;;;;2.45;1.70;;;;;;;2.63;60.54;96708.98;1732791;82;21483;-80